createdAt,value
2023-03-03T00:00:29.057Z,2.27
2023-03-03T00:03:01.963Z,2.26
2023-03-03T00:05:28.710Z,2.36
2023-03-03T00:07:55.296Z,2.47
2023-03-03T00:10:21.999Z,2.30
2023-03-03T00:12:50.903Z,2.12
2023-03-03T00:15:20.694Z,2.22
2023-03-03T00:17:47.696Z,2.12
2023-03-03T00:20:37.533Z,2.09
2023-03-03T00:23:21.264Z,2.15
2023-03-03T00:25:51.885Z,2.32
2023-03-03T00:28:27.406Z,2.44
2023-03-03T00:30:56.264Z,2.40
2023-03-03T00:33:28.652Z,2.28
2023-03-03T00:35:57.627Z,2.27
2023-03-03T00:38:24.420Z,2.31
2023-03-03T00:40:51.542Z,2.25
2023-03-03T00:43:27.981Z,2.51
2023-03-03T00:45:56.820Z,2.37
2023-03-03T00:48:46.950Z,2.27
2023-03-03T00:51:23.076Z,2.04
2023-03-03T00:53:50.849Z,2.11
2023-03-03T00:56:17.525Z,1.80
2023-03-03T00:58:45.923Z,2.10
2023-03-03T01:01:12.866Z,2.22
2023-03-03T01:03:45.324Z,2.25
2023-03-03T01:06:12.812Z,2.38
2023-03-03T01:08:39.589Z,2.44
2023-03-03T01:11:16.356Z,2.36
2023-03-03T01:13:47.866Z,2.15
2023-03-03T01:16:14.675Z,2.19
2023-03-03T01:18:42.073Z,2.04
2023-03-03T01:21:09.983Z,1.90
2023-03-03T01:23:36.697Z,2.09
2023-03-03T01:26:04.667Z,2.06
2023-03-03T01:28:33.229Z,2.30
2023-03-03T01:31:05.977Z,2.28
2023-03-03T01:33:35.218Z,2.35
2023-03-03T01:36:02.676Z,2.39
2023-03-03T01:38:29.641Z,2.47
2023-03-03T01:40:59.596Z,2.56
2023-03-03T01:43:28.181Z,2.47
2023-03-03T01:45:57.936Z,2.40
2023-03-03T01:48:44.722Z,2.50
2023-03-03T01:51:34.316Z,2.47
2023-03-03T01:54:02.509Z,2.54
2023-03-03T01:56:29.938Z,2.51
2023-03-03T01:59:16.316Z,2.08
2023-03-03T02:01:43.176Z,1.92
2023-03-03T02:04:10.148Z,1.87
2023-03-03T02:06:42.023Z,1.75
2023-03-03T02:09:53.501Z,1.79
2023-03-03T02:12:26.368Z,1.97
2023-03-03T02:14:53.097Z,1.74
2023-03-03T02:17:19.903Z,1.85
2023-03-03T02:19:58.193Z,1.81
2023-03-03T02:22:36.825Z,1.86
2023-03-03T02:25:18.203Z,1.86
2023-03-03T02:27:44.967Z,1.70
2023-03-03T02:30:21.077Z,1.59
2023-03-03T02:32:47.950Z,1.65
2023-03-03T02:35:37.318Z,1.68
2023-03-03T02:38:07.099Z,1.67
2023-03-03T02:40:40.567Z,1.85
2023-03-03T02:43:10.169Z,1.76
2023-03-03T02:45:42.806Z,1.83
2023-03-03T02:48:09.585Z,1.98
2023-03-03T02:50:36.445Z,1.72
2023-03-03T02:53:03.694Z,1.85
2023-03-03T02:55:30.513Z,2.00
2023-03-03T02:57:57.491Z,1.77
2023-03-03T03:00:25.662Z,1.76
2023-03-03T03:02:52.476Z,1.87
2023-03-03T03:05:19.599Z,1.72
2023-03-03T03:07:46.527Z,1.62
2023-03-03T03:10:13.309Z,1.58
2023-03-03T03:12:41.574Z,1.43
2023-03-03T03:15:10.599Z,1.70
2023-03-03T03:17:38.674Z,1.79
2023-03-03T03:20:07.092Z,1.85
2023-03-03T03:22:34.515Z,2.00
2023-03-03T03:25:01.802Z,1.98
2023-03-03T03:27:29.066Z,1.87
2023-03-03T03:29:56.104Z,1.61
2023-03-03T03:32:23.703Z,1.90
2023-03-03T03:34:51.015Z,1.94
2023-03-03T03:37:18.248Z,2.10
2023-03-03T03:39:46.176Z,1.97
2023-03-03T03:42:13.848Z,1.96
2023-03-03T03:44:41.213Z,1.95
2023-03-03T03:47:08.113Z,1.76
2023-03-03T03:49:36.604Z,1.90
2023-03-03T03:52:03.762Z,2.01
2023-03-03T03:54:32.807Z,2.16
2023-03-03T03:56:59.616Z,2.14
2023-03-03T03:59:27.228Z,2.16
2023-03-03T04:01:54.248Z,1.71
2023-03-03T04:04:22.276Z,1.73
2023-03-03T04:06:49.745Z,1.73
2023-03-03T04:09:16.823Z,1.68
2023-03-03T04:11:44.772Z,1.63
2023-03-03T04:14:12.839Z,1.75
2023-03-03T04:16:39.630Z,1.79
2023-03-03T04:19:06.506Z,1.72
2023-03-03T04:21:36.376Z,1.49
2023-03-03T04:24:03.091Z,1.54
2023-03-03T04:26:31.646Z,1.61
2023-03-03T04:29:01.198Z,1.57
2023-03-03T04:31:29.071Z,1.57
2023-03-03T04:33:56.107Z,1.59
2023-03-03T04:36:23.434Z,1.74
2023-03-03T04:38:50.275Z,1.40
2023-03-03T04:41:18.022Z,1.60
2023-03-03T04:43:45.483Z,1.71
2023-03-03T04:46:13.416Z,1.43
2023-03-03T04:48:40.292Z,1.50
2023-03-03T04:51:07.047Z,1.79
2023-03-03T04:53:36.769Z,1.72
2023-03-03T04:56:04.924Z,1.64
2023-03-03T04:58:31.855Z,1.62
2023-03-03T05:00:58.721Z,1.56
2023-03-03T05:03:28.266Z,1.60
2023-03-03T05:05:55.508Z,1.59
2023-03-03T05:08:22.845Z,1.61
2023-03-03T05:10:55.794Z,1.59
2023-03-03T05:13:28.485Z,1.49
2023-03-03T05:15:56.463Z,1.61
2023-03-03T05:18:27.795Z,1.68
2023-03-03T05:20:54.952Z,1.72
2023-03-03T05:23:22.006Z,1.79
2023-03-03T05:25:50.940Z,1.82
2023-03-03T05:28:18.347Z,1.79
2023-03-03T05:30:45.333Z,1.80
2023-03-03T05:33:21.627Z,1.91
2023-03-03T05:35:50.977Z,1.66
2023-03-03T05:38:19.717Z,1.38
2023-03-03T05:40:47.303Z,1.25
2023-03-03T05:43:14.120Z,1.37
2023-03-03T05:45:40.824Z,1.41
2023-03-03T05:48:07.553Z,1.35
2023-03-03T05:50:34.242Z,1.32
2023-03-03T05:53:01.014Z,1.24
2023-03-03T05:55:28.000Z,1.43
2023-03-03T05:57:55.667Z,1.24
2023-03-03T06:00:22.900Z,1.14
2023-03-03T06:02:49.668Z,1.17
2023-03-03T06:05:16.348Z,1.27
2023-03-03T06:07:43.181Z,1.30
2023-03-03T06:10:13.764Z,1.08
2023-03-03T06:12:42.520Z,1.27
2023-03-03T06:15:10.441Z,1.02
2023-03-03T06:17:37.205Z,1.22
2023-03-03T06:20:04.461Z,1.31
2023-03-03T06:22:31.923Z,1.08
2023-03-03T06:24:58.599Z,1.18
2023-03-03T06:27:25.429Z,1.46
2023-03-03T06:29:52.144Z,1.37
2023-03-03T06:32:18.918Z,1.16
2023-03-03T06:34:45.597Z,1.11
2023-03-03T06:37:12.230Z,1.33
2023-03-03T06:39:39.146Z,1.46
2023-03-03T06:42:07.194Z,1.39
2023-03-03T06:44:33.948Z,1.17
2023-03-03T06:47:00.830Z,1.13
2023-03-03T06:49:27.592Z,1.13
2023-03-03T06:51:54.614Z,1.11
2023-03-03T06:54:30.296Z,1.20
2023-03-03T06:57:13.927Z,1.25
2023-03-03T06:59:41.397Z,1.18
2023-03-03T07:02:17.477Z,1.49
2023-03-03T07:04:46.918Z,1.34
2023-03-03T07:07:20.705Z,1.43
2023-03-03T07:09:55.483Z,1.52
2023-03-03T07:12:30.741Z,1.39
2023-03-03T07:15:18.484Z,1.23
2023-03-03T07:17:50.929Z,1.38
2023-03-03T07:20:21.900Z,1.45
2023-03-03T07:22:48.618Z,1.31
2023-03-03T07:25:35.408Z,0.95
2023-03-03T07:28:33.041Z,0.75
2023-03-03T07:31:00.027Z,1.02
2023-03-03T07:33:38.004Z,1.02
2023-03-03T07:36:19.828Z,1.24
2023-03-03T07:38:54.701Z,1.30
2023-03-03T07:41:23.487Z,1.31
2023-03-03T07:43:55.021Z,1.18
2023-03-03T07:46:24.966Z,1.28
2023-03-03T07:48:53.141Z,1.33
2023-03-03T07:51:25.194Z,1.40
2023-03-03T07:53:54.258Z,1.49
2023-03-03T07:56:30.873Z,1.43
2023-03-03T07:58:58.627Z,1.37
2023-03-03T08:01:44.757Z,1.43
2023-03-03T08:04:40.861Z,1.60
2023-03-03T08:07:26.221Z,1.31
2023-03-03T08:09:59.926Z,1.64
2023-03-03T08:12:42.870Z,1.49
2023-03-03T08:15:36.807Z,1.38
2023-03-03T08:18:19.529Z,1.29
2023-03-03T08:20:48.329Z,1.34
2023-03-03T08:23:16.581Z,1.51
2023-03-03T08:25:43.865Z,1.40
2023-03-03T08:28:11.724Z,1.41
2023-03-03T08:30:38.835Z,1.51
2023-03-03T08:33:05.712Z,1.71
2023-03-03T08:35:32.501Z,1.63
2023-03-03T08:37:59.430Z,1.51
2023-03-03T08:40:26.166Z,1.40
2023-03-03T08:42:54.392Z,1.69
2023-03-03T08:45:21.735Z,1.66
2023-03-03T08:47:48.517Z,1.90
2023-03-03T08:50:15.386Z,1.79
2023-03-03T08:52:42.218Z,2.25
2023-03-03T08:55:09.650Z,2.32
2023-03-03T08:57:39.150Z,2.32
2023-03-03T09:00:12.931Z,2.05
2023-03-03T09:02:39.914Z,2.45
2023-03-03T09:05:07.343Z,2.36
2023-03-03T09:07:34.676Z,2.47
2023-03-03T09:10:01.996Z,2.53
2023-03-03T09:12:38.437Z,2.46
2023-03-03T09:15:14.710Z,2.59
2023-03-03T09:17:41.657Z,2.33
2023-03-03T09:20:35.661Z,2.72
2023-03-03T09:23:24.433Z,2.64
2023-03-03T09:25:52.753Z,2.54
2023-03-03T09:28:25.449Z,3.00
2023-03-03T09:30:54.532Z,3.03
2023-03-03T09:33:44.919Z,2.82
2023-03-03T09:36:24.317Z,2.72
2023-03-03T09:38:51.189Z,2.94
2023-03-03T09:41:17.860Z,3.07
2023-03-03T09:44:12.245Z,2.63
2023-03-03T09:46:54.202Z,2.69
2023-03-03T09:50:00.688Z,2.84
2023-03-03T09:52:57.275Z,2.79
2023-03-03T09:55:57.333Z,2.81
2023-03-03T09:58:29.748Z,2.86
2023-03-03T10:01:05.680Z,3.04
2023-03-03T10:03:32.340Z,3.21
2023-03-03T10:06:20.699Z,2.78
2023-03-03T10:09:09.011Z,2.91
2023-03-03T10:11:49.994Z,3.06
2023-03-03T10:14:49.353Z,3.17
2023-03-03T10:17:54.325Z,3.25
2023-03-03T10:20:40.435Z,3.23
2023-03-03T10:23:29.596Z,3.16
2023-03-03T10:26:05.721Z,3.33
2023-03-03T10:28:35.410Z,3.40
2023-03-03T10:31:37.732Z,3.35
2023-03-03T10:34:29.820Z,3.12
2023-03-03T10:37:31.114Z,3.24
2023-03-03T10:40:24.014Z,2.93
2023-03-03T10:43:08.783Z,3.28
2023-03-03T10:45:57.889Z,3.59
2023-03-03T10:48:42.876Z,3.51
2023-03-03T10:51:18.588Z,3.46
2023-03-03T10:54:04.265Z,3.18
2023-03-03T10:56:52.173Z,3.38
2023-03-03T10:59:57.637Z,3.51
2023-03-03T11:02:42.052Z,3.66
2023-03-03T11:05:27.112Z,4.06
2023-03-03T11:08:02.266Z,3.77
2023-03-03T11:10:35.191Z,4.08
2023-03-03T11:13:11.210Z,4.40
2023-03-03T11:15:44.644Z,4.52
2023-03-03T11:18:23.836Z,3.87
2023-03-03T11:20:59.706Z,4.33
2023-03-03T11:23:43.555Z,3.77
2023-03-03T11:26:16.050Z,3.89
2023-03-03T11:29:13.186Z,3.19
2023-03-03T11:31:53.644Z,3.31
2023-03-03T11:34:45.130Z,3.67
2023-03-03T11:37:20.209Z,3.66
2023-03-03T11:39:49.371Z,3.87
2023-03-03T11:42:17.219Z,3.96
2023-03-03T11:44:50.029Z,4.31
2023-03-03T11:47:19.490Z,4.29
2023-03-03T11:49:58.046Z,4.55
2023-03-03T11:52:40.584Z,4.58
2023-03-03T11:55:17.521Z,4.64
2023-03-03T11:58:14.462Z,4.71
2023-03-03T12:00:58.616Z,4.48
2023-03-03T12:03:40.593Z,4.47
2023-03-03T12:06:12.518Z,5.10
2023-03-03T12:09:07.990Z,5.12
2023-03-03T12:11:43.286Z,5.34
2023-03-03T12:14:12.883Z,5.33
2023-03-03T12:16:58.719Z,5.08
2023-03-03T12:19:28.192Z,5.34
2023-03-03T12:22:22.667Z,4.79
2023-03-03T12:25:17.531Z,4.48
2023-03-03T12:27:53.396Z,4.98
2023-03-03T12:30:35.933Z,4.96
2023-03-03T12:33:14.897Z,4.92
2023-03-03T12:36:06.599Z,5.31
2023-03-03T12:39:01.817Z,5.60
2023-03-03T12:41:39.691Z,5.77
2023-03-03T12:44:38.944Z,5.53
2023-03-03T12:47:35.015Z,6.27
2023-03-03T12:50:25.456Z,6.48
2023-03-03T12:53:02.749Z,5.74
2023-03-03T12:55:50.573Z,5.49
2023-03-03T12:58:29.462Z,5.47
2023-03-03T13:00:59.258Z,5.29
2023-03-03T13:03:54.912Z,5.43
2023-03-03T13:06:33.291Z,5.37
2023-03-03T13:09:03.078Z,5.33
2023-03-03T13:12:03.514Z,5.38
2023-03-03T13:14:43.747Z,4.93
2023-03-03T13:17:37.230Z,5.21
2023-03-03T13:20:17.195Z,6.00
2023-03-03T13:22:55.800Z,6.48
2023-03-03T13:25:50.337Z,6.50
2023-03-03T13:28:23.471Z,6.27
2023-03-03T13:30:56.709Z,5.33
2023-03-03T13:33:30.977Z,5.86
2023-03-03T13:36:10.416Z,5.36
2023-03-03T13:38:42.770Z,5.50
2023-03-03T13:41:34.030Z,5.46
2023-03-03T13:44:15.365Z,5.99
2023-03-03T13:46:58.362Z,5.95
2023-03-03T13:49:37.295Z,6.03
2023-03-03T13:52:08.837Z,6.16
2023-03-03T13:54:41.687Z,6.40
2023-03-03T13:57:27.976Z,7.37
2023-03-03T14:00:18.314Z,6.88
2023-03-03T14:03:08.223Z,6.82
2023-03-03T14:05:39.239Z,6.64
2023-03-03T14:08:36.997Z,6.89
2023-03-03T14:11:12.480Z,6.78
2023-03-03T14:14:00.385Z,7.06
2023-03-03T14:16:33.167Z,7.33
2023-03-03T14:19:05.796Z,7.27
2023-03-03T14:21:43.809Z,7.09
2023-03-03T14:24:20.170Z,6.56
2023-03-03T14:26:52.036Z,6.62
2023-03-03T14:29:27.960Z,6.69
2023-03-03T14:32:01.556Z,6.82
2023-03-03T14:34:39.354Z,6.91
2023-03-03T14:37:26.307Z,6.93
2023-03-03T14:40:30.668Z,7.08
2023-03-03T14:43:03.897Z,7.85
2023-03-03T14:45:39.568Z,7.21
2023-03-03T14:48:27.470Z,7.47
2023-03-03T14:51:15.708Z,7.15
2023-03-03T14:53:48.062Z,7.21
2023-03-03T14:56:49.471Z,7.29
2023-03-03T14:59:23.878Z,7.60
2023-03-03T15:02:16.767Z,7.33
2023-03-03T15:04:45.842Z,7.85
2023-03-03T15:07:28.040Z,7.57
2023-03-03T15:09:54.901Z,7.41
2023-03-03T15:12:42.220Z,7.82
2023-03-03T15:15:20.878Z,7.64
2023-03-03T15:17:50.656Z,7.60
2023-03-03T15:20:35.996Z,6.99
2023-03-03T15:23:27.461Z,7.08
2023-03-03T15:25:58.811Z,7.11
2023-03-03T15:28:44.553Z,7.82
2023-03-03T15:31:17.540Z,7.85
2023-03-03T15:33:53.391Z,7.78
2023-03-03T15:36:32.386Z,7.85
2023-03-03T15:39:41.818Z,7.35
2023-03-03T15:42:13.790Z,7.05
2023-03-03T15:45:27.205Z,7.77
2023-03-03T15:48:03.978Z,8.02
2023-03-03T15:50:39.209Z,7.27
2023-03-03T15:53:40.946Z,7.17
2023-03-03T15:56:11.075Z,7.64
2023-03-03T15:59:02.756Z,7.61
2023-03-03T16:01:32.168Z,7.58
2023-03-03T16:04:04.388Z,6.82
2023-03-03T16:06:38.220Z,7.27
2023-03-03T16:09:28.220Z,7.26
2023-03-03T16:12:01.230Z,6.92
2023-03-03T16:14:30.994Z,7.14
2023-03-03T16:17:28.938Z,7.01
2023-03-03T16:19:55.642Z,6.72
2023-03-03T16:22:46.831Z,7.05
2023-03-03T16:25:20.608Z,6.79
2023-03-03T16:28:31.050Z,6.29
2023-03-03T16:31:13.263Z,6.52
2023-03-03T16:33:52.048Z,6.30
2023-03-03T16:36:38.397Z,6.51
2023-03-03T16:39:33.903Z,6.50
2023-03-03T16:42:06.662Z,6.43
2023-03-03T16:44:54.990Z,6.58
2023-03-03T16:47:38.954Z,6.65
2023-03-03T16:50:27.298Z,6.67
2023-03-03T16:53:13.046Z,6.29
2023-03-03T16:55:45.846Z,6.50
2023-03-03T16:58:40.790Z,6.42
2023-03-03T17:01:26.591Z,6.45
2023-03-03T17:04:22.390Z,6.33
2023-03-03T17:06:59.728Z,6.27
2023-03-03T17:09:45.350Z,6.21
2023-03-03T17:12:18.077Z,6.16
2023-03-03T17:15:05.527Z,6.14
2023-03-03T17:17:50.501Z,6.04
2023-03-03T17:20:20.125Z,5.84
2023-03-03T17:23:20.260Z,5.95
2023-03-03T17:25:56.316Z,5.90
2023-03-03T17:28:43.119Z,5.78
2023-03-03T17:31:12.642Z,5.61
2023-03-03T17:34:11.632Z,5.75
2023-03-03T17:36:45.847Z,5.62
2023-03-03T17:39:20.099Z,5.79
2023-03-03T17:42:14.484Z,5.77
2023-03-03T17:44:55.938Z,5.72
2023-03-03T17:47:45.608Z,5.64
2023-03-03T17:50:15.674Z,5.62
2023-03-03T17:52:48.775Z,5.65
2023-03-03T17:55:21.360Z,5.65
2023-03-03T17:58:09.905Z,5.66
2023-03-03T18:00:55.849Z,5.70
2023-03-03T18:03:36.114Z,5.67
2023-03-03T18:06:32.164Z,5.66
2023-03-03T18:09:14.216Z,5.71
2023-03-03T18:12:11.076Z,5.71
2023-03-03T18:14:46.946Z,5.67
2023-03-03T18:17:36.430Z,5.22
2023-03-03T18:20:39.263Z,5.36
2023-03-03T18:23:31.752Z,5.48
2023-03-03T18:26:41.645Z,5.53
2023-03-03T18:29:17.414Z,5.50
2023-03-03T18:31:52.776Z,5.62
2023-03-03T18:34:22.410Z,5.48
2023-03-03T18:36:56.634Z,5.48
2023-03-03T18:39:46.936Z,5.60
2023-03-03T18:42:16.710Z,5.54
2023-03-03T18:44:47.888Z,5.51
2023-03-03T18:47:15.505Z,5.48
2023-03-03T18:49:52.736Z,5.63
2023-03-03T18:52:28.993Z,5.52
2023-03-03T18:55:11.474Z,5.37
2023-03-03T18:57:40.460Z,5.28
2023-03-03T19:00:22.739Z,5.25
2023-03-03T19:02:59.025Z,5.19
2023-03-03T19:05:28.758Z,5.20
2023-03-03T19:08:02.148Z,5.13
2023-03-03T19:10:51.029Z,5.26
2023-03-03T19:13:33.127Z,5.16
2023-03-03T19:16:04.412Z,5.32
2023-03-03T19:18:55.518Z,5.21
2023-03-03T19:21:32.441Z,5.17
2023-03-03T19:24:02.023Z,5.19
2023-03-03T19:26:34.758Z,5.19
2023-03-03T19:29:26.813Z,5.13
2023-03-03T19:32:09.435Z,5.07
2023-03-03T19:35:06.744Z,5.17
2023-03-03T19:37:39.327Z,5.01
2023-03-03T19:40:28.090Z,4.79
2023-03-03T19:43:15.831Z,5.07
2023-03-03T19:45:51.485Z,5.27
2023-03-03T19:48:36.762Z,5.40
2023-03-03T19:51:27.788Z,5.24
2023-03-03T19:54:09.698Z,5.43
2023-03-03T19:56:51.084Z,5.48
2023-03-03T19:59:31.507Z,5.54
2023-03-03T20:02:38.066Z,5.26
2023-03-03T20:05:14.596Z,5.48
2023-03-03T20:07:48.678Z,5.37
2023-03-03T20:10:57.281Z,5.42
2023-03-03T20:13:48.324Z,5.56
2023-03-03T20:16:27.768Z,5.18
2023-03-03T20:19:03.551Z,5.45
2023-03-03T20:21:38.907Z,5.49
2023-03-03T20:24:40.937Z,5.72
2023-03-03T20:27:19.971Z,5.55
2023-03-03T20:29:55.526Z,5.45
2023-03-03T20:32:51.334Z,5.48
2023-03-03T20:35:47.458Z,5.43
2023-03-03T20:38:51.773Z,5.44
2023-03-03T20:41:21.622Z,5.13
2023-03-03T20:43:57.593Z,5.41
2023-03-03T20:46:32.188Z,5.69
2023-03-03T20:49:01.649Z,5.70
2023-03-03T20:52:05.676Z,5.49
2023-03-03T20:55:10.212Z,5.55
2023-03-03T20:57:47.081Z,5.70
2023-03-03T21:00:25.452Z,5.67
2023-03-03T21:03:34.155Z,5.32
2023-03-03T21:06:20.913Z,5.29
2023-03-03T21:08:48.513Z,5.24
2023-03-03T21:11:18.920Z,5.30
2023-03-03T21:13:52.149Z,5.24
2023-03-03T21:16:21.956Z,5.43
2023-03-03T21:19:06.168Z,5.47
2023-03-03T21:21:38.512Z,5.70
2023-03-03T21:24:06.489Z,5.68
2023-03-03T21:26:45.918Z,5.31
2023-03-03T21:29:23.174Z,5.47
2023-03-03T21:32:01.092Z,5.70
2023-03-03T21:34:33.621Z,5.24
2023-03-03T21:37:07.107Z,5.18
2023-03-03T21:39:39.152Z,5.17
2023-03-03T21:42:07.493Z,5.59
2023-03-03T21:45:01.057Z,5.76
2023-03-03T21:47:29.181Z,5.28
2023-03-03T21:49:55.885Z,5.46
2023-03-03T21:52:22.885Z,5.46
2023-03-03T21:54:51.603Z,5.69
2023-03-03T21:57:18.417Z,5.54
2023-03-03T21:59:45.088Z,5.44
2023-03-03T22:02:11.825Z,5.42
2023-03-03T22:04:38.914Z,5.48
2023-03-03T22:07:05.717Z,5.59
2023-03-03T22:09:32.442Z,5.60
2023-03-03T22:11:59.193Z,5.61
2023-03-03T22:14:25.973Z,5.46
2023-03-03T22:16:52.759Z,5.56
2023-03-03T22:19:19.460Z,5.42
2023-03-03T22:21:47.380Z,5.49
2023-03-03T22:24:14.110Z,5.36
2023-03-03T22:26:40.847Z,5.50
2023-03-03T22:29:08.824Z,5.75
2023-03-03T22:31:35.624Z,5.57
2023-03-03T22:34:02.497Z,5.65
2023-03-03T22:36:29.213Z,5.49
2023-03-03T22:38:55.927Z,5.48
2023-03-03T22:41:22.627Z,5.47
2023-03-03T22:43:49.538Z,5.45
2023-03-03T22:46:16.283Z,5.51
2023-03-03T22:48:43.098Z,5.62
2023-03-03T22:51:09.839Z,5.68
2023-03-03T22:53:36.574Z,5.33
2023-03-03T22:56:03.493Z,5.33
2023-03-03T22:58:30.889Z,5.76
2023-03-03T23:00:57.610Z,5.40
2023-03-03T23:03:24.841Z,5.43
2023-03-03T23:05:52.132Z,5.37
2023-03-03T23:08:20.574Z,5.75
2023-03-03T23:10:48.345Z,5.61
2023-03-03T23:13:15.610Z,5.59
2023-03-03T23:15:43.172Z,5.56
2023-03-03T23:18:10.193Z,5.61
2023-03-03T23:20:37.414Z,5.49
2023-03-03T23:23:04.348Z,5.48
2023-03-03T23:25:31.230Z,5.44
2023-03-03T23:27:57.966Z,5.06
2023-03-03T23:30:25.299Z,5.39
2023-03-03T23:32:52.189Z,5.50
2023-03-03T23:35:22.142Z,5.76
2023-03-03T23:37:48.943Z,5.81
2023-03-03T23:40:16.724Z,5.92
2023-03-03T23:42:43.802Z,5.80
2023-03-03T23:45:13.286Z,5.70
2023-03-03T23:47:40.130Z,5.61
2023-03-03T23:50:07.767Z,5.54
2023-03-03T23:52:34.632Z,5.76
2023-03-03T23:55:01.561Z,5.37
2023-03-03T23:57:28.350Z,5.70
2023-03-03T23:59:55.045Z,5.52
